createdAt,value
2023-02-15T00:01:50.367Z,67.90
2023-02-15T00:04:23.768Z,68.00
2023-02-15T00:06:51.371Z,67.90
2023-02-15T00:09:18.252Z,68.00
2023-02-15T00:11:50.987Z,67.90
2023-02-15T00:14:23.127Z,67.90
2023-02-15T00:16:52.360Z,67.80
2023-02-15T00:19:21.311Z,68.60
2023-02-15T00:21:49.380Z,67.80
2023-02-15T00:24:18.447Z,67.80
2023-02-15T00:26:46.903Z,67.90
2023-02-15T00:29:15.603Z,67.90
2023-02-15T00:31:43.385Z,67.90
2023-02-15T00:34:16.795Z,67.80
2023-02-15T00:36:44.892Z,67.80
2023-02-15T00:39:12.323Z,67.70
2023-02-15T00:41:39.762Z,67.90
2023-02-15T00:44:07.811Z,68.10
2023-02-15T00:46:35.675Z,68.10
2023-02-15T00:49:03.696Z,68.20
2023-02-15T00:51:31.687Z,68.10
2023-02-15T00:53:58.566Z,68.10
2023-02-15T00:56:25.550Z,68.20
2023-02-15T00:58:52.598Z,68.30
2023-02-15T01:01:22.541Z,68.30
2023-02-15T01:03:51.770Z,68.30
2023-02-15T01:06:19.415Z,68.30
2023-02-15T01:08:48.672Z,68.20
2023-02-15T01:11:23.335Z,68.30
2023-02-15T01:13:53.425Z,68.20
2023-02-15T01:16:20.637Z,68.10
2023-02-15T01:18:49.015Z,68.10
2023-02-15T01:21:18.975Z,68.20
2023-02-15T01:23:46.866Z,68.40
2023-02-15T01:26:14.854Z,68.70
2023-02-15T01:28:44.715Z,69.10
2023-02-15T01:31:18.075Z,69.30
2023-02-15T01:33:47.001Z,69.50
2023-02-15T01:36:15.295Z,69.90
2023-02-15T01:38:45.058Z,70.20
2023-02-15T01:41:23.871Z,70.30
2023-02-15T01:43:54.095Z,70.20
2023-02-15T01:46:25.997Z,69.80
2023-02-15T01:48:58.109Z,69.40
2023-02-15T01:51:30.551Z,69.20
2023-02-15T01:54:12.197Z,68.70
2023-02-15T01:56:40.901Z,68.40
2023-02-15T01:59:15.945Z,68.30
2023-02-15T02:01:43.634Z,68.00
2023-02-15T02:04:18.042Z,68.10
2023-02-15T02:06:49.080Z,68.00
2023-02-15T02:09:16.245Z,67.80
2023-02-15T02:11:47.490Z,67.70
2023-02-15T02:14:15.423Z,67.70
2023-02-15T02:16:57.343Z,67.70
2023-02-15T02:19:47.598Z,67.50
2023-02-15T02:22:29.771Z,67.30
2023-02-15T02:25:24.788Z,67.20
2023-02-15T02:28:23.875Z,67.30
2023-02-15T02:31:03.189Z,67.40
2023-02-15T02:34:27.685Z,67.30
2023-02-15T02:37:25.804Z,67.20
2023-02-15T02:40:29.588Z,67.40
2023-02-15T02:43:12.165Z,67.10
2023-02-15T02:45:46.774Z,67.00
2023-02-15T02:48:19.883Z,67.00
2023-02-15T02:50:49.724Z,67.20
2023-02-15T02:53:17.318Z,67.40
2023-02-15T02:55:59.923Z,67.60
2023-02-15T02:58:40.469Z,67.70
2023-02-15T03:01:19.834Z,67.70
2023-02-15T03:04:06.638Z,67.50
2023-02-15T03:07:22.989Z,67.50
2023-02-15T03:09:54.229Z,67.50
2023-02-15T03:12:26.026Z,67.50
2023-02-15T03:15:03.471Z,67.50
2023-02-15T03:17:34.548Z,67.40
2023-02-15T03:20:08.339Z,67.30
2023-02-15T03:22:42.184Z,67.30
2023-02-15T03:25:21.007Z,67.20
2023-02-15T03:27:52.735Z,67.20
2023-02-15T03:30:23.074Z,67.50
2023-02-15T03:32:51.977Z,67.40
2023-02-15T03:35:23.384Z,67.50
2023-02-15T03:38:00.040Z,67.50
2023-02-15T03:40:57.751Z,67.50
2023-02-15T03:43:45.954Z,67.40
2023-02-15T03:46:41.236Z,67.40
2023-02-15T03:49:12.809Z,67.30
2023-02-15T03:51:43.374Z,67.20
2023-02-15T03:54:35.339Z,67.20
2023-02-15T03:57:21.927Z,67.10
2023-02-15T04:00:07.621Z,67.20
2023-02-15T04:02:52.892Z,67.20
2023-02-15T04:05:19.899Z,67.20
2023-02-15T04:07:47.016Z,67.30
2023-02-15T04:10:32.652Z,67.30
2023-02-15T04:12:59.601Z,67.50
2023-02-15T04:15:45.071Z,67.80
2023-02-15T04:18:12.121Z,67.90
2023-02-15T04:20:57.938Z,68.00
2023-02-15T04:23:43.584Z,68.10
2023-02-15T04:26:10.573Z,68.10
2023-02-15T04:28:37.543Z,68.10
2023-02-15T04:31:04.609Z,68.00
2023-02-15T04:33:31.576Z,68.10
2023-02-15T04:35:58.530Z,68.10
2023-02-15T04:38:25.551Z,68.20
2023-02-15T04:40:53.137Z,68.50
2023-02-15T04:43:20.912Z,68.60
2023-02-15T04:45:51.856Z,69.70
2023-02-15T04:48:19.248Z,69.00
2023-02-15T04:50:46.404Z,68.90
2023-02-15T04:53:13.507Z,68.80
2023-02-15T04:55:40.581Z,68.70
2023-02-15T04:58:07.620Z,68.80
2023-02-15T05:00:34.674Z,69.00
2023-02-15T05:03:01.742Z,68.90
2023-02-15T05:05:28.884Z,69.00
2023-02-15T05:07:55.995Z,69.20
2023-02-15T05:10:23.201Z,69.50
2023-02-15T05:12:50.282Z,69.60
2023-02-15T05:15:17.508Z,69.80
2023-02-15T05:17:44.566Z,69.80
2023-02-15T05:20:11.694Z,70.00
2023-02-15T05:22:38.695Z,70.00
2023-02-15T05:25:41.375Z,70.00
2023-02-15T05:28:22.491Z,69.90
2023-02-15T05:30:52.008Z,70.00
2023-02-15T05:33:19.345Z,70.40
2023-02-15T05:35:46.310Z,70.90
2023-02-15T05:38:13.249Z,71.40
2023-02-15T05:40:40.245Z,71.50
2023-02-15T05:43:07.421Z,71.60
2023-02-15T05:45:34.509Z,71.50
2023-02-15T05:48:01.722Z,71.40
2023-02-15T05:50:28.940Z,71.50
2023-02-15T05:52:58.772Z,71.30
2023-02-15T05:55:25.776Z,71.30
2023-02-15T05:57:52.791Z,71.30
2023-02-15T06:00:20.432Z,71.30
2023-02-15T06:02:47.580Z,71.20
2023-02-15T06:05:14.955Z,71.00
2023-02-15T06:07:45.723Z,70.90
2023-02-15T06:10:12.844Z,70.80
2023-02-15T06:12:39.815Z,70.70
2023-02-15T06:15:07.228Z,70.50
2023-02-15T06:17:34.565Z,70.40
2023-02-15T06:20:01.791Z,70.30
2023-02-15T06:22:28.960Z,70.10
2023-02-15T06:24:55.946Z,70.10
2023-02-15T06:27:24.010Z,69.90
2023-02-15T06:29:51.061Z,70.10
2023-02-15T06:32:18.075Z,70.30
2023-02-15T06:34:45.138Z,70.70
2023-02-15T06:37:12.253Z,70.70
2023-02-15T06:39:39.230Z,70.90
2023-02-15T06:42:06.150Z,71.00
2023-02-15T06:44:33.169Z,71.20
2023-02-15T06:47:00.075Z,71.20
2023-02-15T06:49:30.088Z,71.40
2023-02-15T06:51:57.134Z,71.90
2023-02-15T06:54:24.138Z,72.00
2023-02-15T06:56:51.077Z,72.10
2023-02-15T06:59:18.037Z,72.30
2023-02-15T07:01:45.113Z,72.50
2023-02-15T07:04:12.057Z,73.00
2023-02-15T07:06:39.037Z,73.30
2023-02-15T07:09:06.245Z,73.50
2023-02-15T07:11:51.690Z,73.50
2023-02-15T07:14:18.782Z,73.30
2023-02-15T07:16:45.703Z,73.10
2023-02-15T07:19:12.715Z,72.20
2023-02-15T07:21:39.687Z,71.20
2023-02-15T07:24:07.064Z,70.20
2023-02-15T07:26:34.055Z,68.80
2023-02-15T07:29:01.044Z,68.50
2023-02-15T07:31:28.195Z,67.70
2023-02-15T07:33:55.173Z,67.40
2023-02-15T07:36:22.465Z,65.90
2023-02-15T07:38:49.454Z,65.40
2023-02-15T07:41:17.190Z,62.60
2023-02-15T07:43:46.264Z,62.30
2023-02-15T07:46:16.284Z,60.80
2023-02-15T07:48:45.273Z,59.30
2023-02-15T07:51:13.508Z,58.70
2023-02-15T07:53:40.652Z,58.30
2023-02-15T07:56:13.265Z,56.60
2023-02-15T07:58:52.596Z,55.60
2023-02-15T08:01:32.799Z,53.40
2023-02-15T08:04:00.228Z,52.30
2023-02-15T08:06:30.720Z,52.00
2023-02-15T08:08:57.874Z,51.60
2023-02-15T08:11:27.391Z,50.50
2023-02-15T08:14:03.495Z,51.10
2023-02-15T08:16:30.543Z,50.80
2023-02-15T08:18:59.097Z,50.30
2023-02-15T08:21:30.331Z,48.60
2023-02-15T08:23:58.499Z,48.20
2023-02-15T08:26:26.311Z,47.20
2023-02-15T08:28:53.532Z,47.50
2023-02-15T08:31:21.791Z,46.00
2023-02-15T08:33:50.824Z,45.90
2023-02-15T08:36:20.570Z,46.10
2023-02-15T08:38:48.679Z,45.80
2023-02-15T08:41:19.961Z,45.30
2023-02-15T08:43:52.878Z,44.90
2023-02-15T08:46:20.392Z,44.60
2023-02-15T08:48:48.109Z,44.20
2023-02-15T08:51:18.556Z,43.50
2023-02-15T08:53:50.201Z,42.40
2023-02-15T08:56:19.493Z,42.20
2023-02-15T08:58:46.584Z,41.40
2023-02-15T09:01:20.883Z,41.40
2023-02-15T09:03:50.395Z,41.10
2023-02-15T09:06:18.380Z,40.90
2023-02-15T09:08:45.761Z,40.80
2023-02-15T09:11:23.847Z,40.30
2023-02-15T09:13:57.095Z,39.10
2023-02-15T09:16:25.959Z,38.80
2023-02-15T09:18:53.566Z,38.00
2023-02-15T09:21:23.103Z,38.20
2023-02-15T09:23:51.826Z,38.50
2023-02-15T09:26:24.135Z,39.00
2023-02-15T09:28:56.688Z,39.00
2023-02-15T09:31:26.652Z,37.20
2023-02-15T09:33:55.055Z,37.80
2023-02-15T09:36:27.663Z,37.20
2023-02-15T09:39:04.846Z,37.10
2023-02-15T09:41:35.057Z,36.30
2023-02-15T09:44:33.324Z,36.50
2023-02-15T09:47:03.481Z,35.40
2023-02-15T09:49:52.287Z,36.30
2023-02-15T09:52:56.973Z,35.60
2023-02-15T09:55:57.398Z,35.60
2023-02-15T09:58:37.359Z,35.50
2023-02-15T10:01:16.582Z,36.50
2023-02-15T10:03:50.254Z,36.70
2023-02-15T10:06:36.334Z,36.00
2023-02-15T10:09:18.883Z,35.00
2023-02-15T10:12:09.150Z,35.10
2023-02-15T10:15:05.704Z,35.10
2023-02-15T10:18:05.411Z,34.90
2023-02-15T10:20:57.844Z,34.70
2023-02-15T10:23:34.016Z,34.70
2023-02-15T10:26:26.124Z,35.40
2023-02-15T10:28:56.435Z,35.30
2023-02-15T10:31:33.567Z,36.30
2023-02-15T10:34:17.555Z,36.50
2023-02-15T10:37:03.076Z,36.60
2023-02-15T10:39:46.348Z,36.90
2023-02-15T10:42:27.617Z,37.20
2023-02-15T10:45:29.544Z,36.80
2023-02-15T10:48:26.038Z,36.50
2023-02-15T10:50:57.545Z,36.70
2023-02-15T10:53:49.348Z,36.40
2023-02-15T10:56:34.238Z,36.10
2023-02-15T10:59:16.229Z,36.80
2023-02-15T11:01:49.426Z,36.70
2023-02-15T11:04:25.574Z,37.30
2023-02-15T11:06:57.635Z,37.90
2023-02-15T11:09:30.796Z,37.60
2023-02-15T11:12:01.578Z,37.90
2023-02-15T11:14:44.812Z,38.80
2023-02-15T11:17:16.933Z,38.10
2023-02-15T11:20:03.829Z,38.30
2023-02-15T11:22:34.415Z,37.00
2023-02-15T11:25:03.577Z,37.20
2023-02-15T11:27:36.809Z,36.90
2023-02-15T11:30:14.493Z,37.00
2023-02-15T11:32:45.634Z,37.60
2023-02-15T11:35:12.979Z,37.30
2023-02-15T11:37:58.684Z,37.70
2023-02-15T11:40:37.043Z,37.70
2023-02-15T11:43:18.743Z,37.90
2023-02-15T11:45:47.469Z,37.80
2023-02-15T11:48:16.072Z,37.70
2023-02-15T11:50:45.225Z,37.10
2023-02-15T11:53:19.086Z,37.40
2023-02-15T11:55:48.235Z,37.30
2023-02-15T11:58:47.976Z,37.20
2023-02-15T12:01:20.809Z,37.40
2023-02-15T12:03:58.827Z,37.40
2023-02-15T12:06:29.815Z,37.70
2023-02-15T12:09:26.947Z,38.00
2023-02-15T12:11:53.971Z,38.20
2023-02-15T12:14:21.383Z,38.80
2023-02-15T12:16:52.100Z,38.90
2023-02-15T12:19:37.440Z,38.20
2023-02-15T12:22:08.675Z,38.00
2023-02-15T12:24:46.416Z,38.30
2023-02-15T12:27:19.785Z,38.20
2023-02-15T12:29:50.032Z,38.30
2023-02-15T12:32:25.966Z,38.50
2023-02-15T12:35:01.676Z,38.20
2023-02-15T12:37:32.979Z,38.60
2023-02-15T12:40:01.429Z,38.70
2023-02-15T12:42:41.646Z,38.90
2023-02-15T12:45:36.653Z,39.30
2023-02-15T12:48:20.223Z,39.70
2023-02-15T12:50:55.317Z,39.70
2023-02-15T12:53:31.348Z,39.90
2023-02-15T12:56:01.053Z,40.40
2023-02-15T12:58:33.660Z,40.90
2023-02-15T13:01:20.477Z,41.10
2023-02-15T13:03:59.181Z,41.20
2023-02-15T13:06:28.185Z,41.40
2023-02-15T13:08:59.822Z,41.60
2023-02-15T13:11:38.887Z,41.80
2023-02-15T13:14:17.746Z,41.60
2023-02-15T13:16:47.274Z,41.90
2023-02-15T13:19:18.403Z,42.20
2023-02-15T13:21:48.936Z,42.20
2023-02-15T13:24:21.961Z,42.20
2023-02-15T13:26:49.620Z,42.40
2023-02-15T13:29:29.055Z,42.60
2023-02-15T13:32:02.714Z,42.80
2023-02-15T13:34:41.141Z,42.60
2023-02-15T13:37:35.628Z,42.70
2023-02-15T13:40:21.245Z,43.00
2023-02-15T13:43:03.349Z,43.20
2023-02-15T13:45:31.707Z,43.20
2023-02-15T13:48:16.713Z,43.30
2023-02-15T13:51:18.126Z,43.20
2023-02-15T13:54:13.891Z,43.40
2023-02-15T13:57:18.742Z,43.40
2023-02-15T14:00:15.316Z,43.60
2023-02-15T14:03:05.150Z,43.80
2023-02-15T14:06:16.019Z,44.00
2023-02-15T14:08:58.348Z,43.80
2023-02-15T14:11:37.387Z,44.10
2023-02-15T14:14:13.808Z,44.30
2023-02-15T14:17:06.276Z,44.40
2023-02-15T14:19:37.571Z,44.60
2023-02-15T14:22:12.604Z,44.90
2023-02-15T14:25:19.609Z,44.90
2023-02-15T14:28:14.371Z,45.10
2023-02-15T14:30:46.607Z,45.40
2023-02-15T14:33:50.793Z,45.60
2023-02-15T14:36:20.644Z,45.70
2023-02-15T14:39:37.623Z,45.60
2023-02-15T14:42:31.108Z,46.00
2023-02-15T14:45:27.418Z,46.10
2023-02-15T14:48:14.237Z,46.00
2023-02-15T14:50:45.250Z,45.90
2023-02-15T14:53:24.844Z,46.10
2023-02-15T14:56:18.544Z,46.30
2023-02-15T14:58:53.212Z,46.50
2023-02-15T15:01:37.469Z,46.30
2023-02-15T15:04:12.836Z,46.20
2023-02-15T15:06:43.364Z,46.20
2023-02-15T15:09:36.224Z,46.30
2023-02-15T15:12:22.091Z,46.50
2023-02-15T15:14:50.714Z,46.50
2023-02-15T15:17:41.148Z,46.50
2023-02-15T15:20:38.353Z,46.70
2023-02-15T15:23:37.760Z,46.70
2023-02-15T15:26:29.011Z,47.00
2023-02-15T15:29:00.024Z,47.00
2023-02-15T15:31:30.408Z,47.10
2023-02-15T15:34:37.119Z,47.30
2023-02-15T15:37:29.597Z,47.40
2023-02-15T15:40:21.929Z,47.80
2023-02-15T15:43:10.170Z,47.70
2023-02-15T15:45:55.935Z,47.80
2023-02-15T15:48:34.564Z,47.70
2023-02-15T15:51:25.473Z,47.60
2023-02-15T15:53:54.651Z,47.70
2023-02-15T15:56:29.088Z,47.80
2023-02-15T15:59:04.016Z,47.80
2023-02-15T16:01:37.067Z,47.80
2023-02-15T16:04:04.271Z,48.00
2023-02-15T16:06:35.248Z,48.00
2023-02-15T16:09:12.232Z,48.10
2023-02-15T16:11:40.809Z,48.00
2023-02-15T16:14:29.926Z,48.20
2023-02-15T16:17:00.477Z,48.30
2023-02-15T16:19:40.550Z,48.60
2023-02-15T16:22:20.486Z,48.60
2023-02-15T16:25:25.062Z,49.00
2023-02-15T16:27:52.753Z,49.30
2023-02-15T16:30:33.437Z,49.60
2023-02-15T16:33:17.917Z,49.80
2023-02-15T16:35:57.007Z,50.00
2023-02-15T16:38:43.811Z,50.20
2023-02-15T16:41:17.142Z,50.50
2023-02-15T16:43:48.004Z,50.60
2023-02-15T16:46:40.872Z,50.90
2023-02-15T16:49:26.107Z,51.30
2023-02-15T16:52:01.985Z,51.60
2023-02-15T16:54:30.953Z,51.90
2023-02-15T16:56:59.154Z,52.20
2023-02-15T16:59:40.667Z,52.20
2023-02-15T17:02:32.038Z,52.40
2023-02-15T17:05:08.972Z,52.60
2023-02-15T17:08:03.094Z,52.80
2023-02-15T17:10:33.898Z,52.90
2023-02-15T17:13:19.111Z,53.30
2023-02-15T17:16:06.602Z,53.40
2023-02-15T17:18:39.262Z,53.70
2023-02-15T17:21:19.725Z,53.90
2023-02-15T17:23:52.243Z,54.20
2023-02-15T17:26:26.104Z,55.00
2023-02-15T17:28:57.863Z,54.70
2023-02-15T17:31:33.902Z,54.80
2023-02-15T17:34:02.404Z,54.90
2023-02-15T17:36:33.138Z,55.00
2023-02-15T17:39:00.234Z,55.00
2023-02-15T17:41:30.194Z,54.70
2023-02-15T17:43:57.578Z,54.90
2023-02-15T17:46:27.756Z,54.60
2023-02-15T17:48:56.989Z,54.60
2023-02-15T17:51:25.047Z,54.60
2023-02-15T17:54:10.656Z,54.40
2023-02-15T17:56:40.110Z,54.50
2023-02-15T17:59:07.741Z,54.50
2023-02-15T18:01:57.183Z,54.40
2023-02-15T18:04:44.061Z,54.70
2023-02-15T18:07:31.966Z,54.60
2023-02-15T18:10:18.556Z,54.70
2023-02-15T18:12:45.795Z,54.80
2023-02-15T18:15:14.171Z,55.10
2023-02-15T18:17:46.459Z,54.90
2023-02-15T18:20:25.152Z,55.30
2023-02-15T18:22:53.050Z,55.40
2023-02-15T18:25:24.330Z,55.60
2023-02-15T18:27:54.869Z,56.10
2023-02-15T18:30:26.296Z,56.00
2023-02-15T18:32:58.842Z,56.20
2023-02-15T18:35:32.195Z,56.20
2023-02-15T18:38:02.222Z,56.70
2023-02-15T18:40:29.817Z,56.80
2023-02-15T18:42:57.512Z,56.80
2023-02-15T18:45:28.777Z,57.00
2023-02-15T18:47:56.199Z,56.70
2023-02-15T18:50:28.211Z,56.70
2023-02-15T18:52:55.444Z,56.80
2023-02-15T18:55:25.377Z,57.00
2023-02-15T18:57:55.434Z,57.10
2023-02-15T19:00:32.473Z,57.50
2023-02-15T19:03:01.602Z,57.60
2023-02-15T19:05:30.898Z,57.50
2023-02-15T19:07:59.922Z,57.70
2023-02-15T19:10:30.489Z,57.70
2023-02-15T19:12:57.846Z,57.70
2023-02-15T19:15:27.898Z,58.10
2023-02-15T19:17:55.263Z,58.10
2023-02-15T19:20:31.443Z,58.40
2023-02-15T19:23:00.564Z,58.30
2023-02-15T19:25:33.267Z,58.20
2023-02-15T19:28:06.163Z,58.30
2023-02-15T19:30:33.551Z,58.30
2023-02-15T19:33:02.213Z,58.00
2023-02-15T19:35:33.752Z,58.00
2023-02-15T19:38:05.928Z,57.90
2023-02-15T19:40:35.687Z,58.10
2023-02-15T19:43:04.006Z,58.20
2023-02-15T19:45:32.793Z,58.00
2023-02-15T19:48:03.492Z,58.20
2023-02-15T19:50:34.308Z,58.60
2023-02-15T19:53:02.637Z,58.30
2023-02-15T19:55:34.651Z,58.10
2023-02-15T19:58:02.603Z,58.30
2023-02-15T20:00:34.228Z,58.20
2023-02-15T20:03:01.543Z,58.40
2023-02-15T20:05:30.609Z,58.50
2023-02-15T20:07:58.617Z,58.90
2023-02-15T20:10:31.649Z,58.60
2023-02-15T20:12:59.521Z,58.70
2023-02-15T20:15:29.022Z,58.80
2023-02-15T20:17:57.587Z,58.90
2023-02-15T20:20:31.123Z,58.80
2023-02-15T20:22:58.381Z,58.90
2023-02-15T20:25:27.941Z,59.20
2023-02-15T20:27:55.814Z,59.30
2023-02-15T20:30:27.097Z,59.40
2023-02-15T20:32:55.065Z,59.50
2023-02-15T20:35:24.852Z,59.70
2023-02-15T20:37:54.829Z,59.70
2023-02-15T20:40:28.240Z,59.60
2023-02-15T20:42:55.392Z,59.50
2023-02-15T20:45:28.571Z,59.20
2023-02-15T20:47:56.960Z,59.30
2023-02-15T20:50:27.586Z,59.30
2023-02-15T20:52:56.791Z,59.30
2023-02-15T20:55:27.105Z,59.30
2023-02-15T20:57:54.218Z,59.10
2023-02-15T21:00:27.336Z,59.00
2023-02-15T21:02:59.350Z,58.90
2023-02-15T21:05:33.409Z,58.90
2023-02-15T21:08:00.574Z,58.90
2023-02-15T21:10:30.360Z,58.90
2023-02-15T21:12:59.734Z,58.80
2023-02-15T21:15:33.846Z,58.50
2023-02-15T21:18:07.084Z,58.70
2023-02-15T21:20:46.202Z,58.60
2023-02-15T21:23:16.057Z,58.60
2023-02-15T21:25:44.692Z,58.60
2023-02-15T21:28:18.702Z,58.70
2023-02-15T21:30:46.321Z,58.50
2023-02-15T21:33:13.383Z,58.50
2023-02-15T21:35:40.847Z,58.50
2023-02-15T21:38:10.867Z,58.40
2023-02-15T21:40:38.000Z,58.50
2023-02-15T21:43:31.749Z,58.50
2023-02-15T21:46:28.498Z,58.50
2023-02-15T21:48:55.426Z,58.40
2023-02-15T21:51:41.093Z,58.40
2023-02-15T21:54:13.003Z,58.50
2023-02-15T21:56:43.347Z,58.60
2023-02-15T21:59:15.877Z,58.50
2023-02-15T22:01:48.048Z,58.60
2023-02-15T22:04:27.721Z,58.60
2023-02-15T22:06:55.641Z,58.50
2023-02-15T22:09:25.544Z,58.50
2023-02-15T22:11:54.556Z,58.60
2023-02-15T22:14:30.951Z,58.50
2023-02-15T22:16:58.075Z,58.50
2023-02-15T22:19:25.146Z,58.50
2023-02-15T22:21:52.390Z,58.50
2023-02-15T22:24:19.479Z,58.50
2023-02-15T22:26:46.781Z,58.60
2023-02-15T22:29:17.352Z,58.60
2023-02-15T22:31:45.302Z,58.50
2023-02-15T22:34:32.515Z,58.50
2023-02-15T22:36:59.538Z,58.40
2023-02-15T22:39:26.782Z,58.40
2023-02-15T22:41:54.928Z,58.50
2023-02-15T22:44:29.030Z,58.60
2023-02-15T22:46:56.407Z,58.50
2023-02-15T22:49:23.440Z,58.40
2023-02-15T22:51:51.483Z,58.40
2023-02-15T22:54:19.855Z,58.50
2023-02-15T22:56:52.459Z,58.50
2023-02-15T22:59:28.419Z,58.40
2023-02-15T23:01:56.282Z,58.50
2023-02-15T23:04:26.216Z,58.80
2023-02-15T23:06:55.232Z,58.40
2023-02-15T23:09:22.542Z,58.50
2023-02-15T23:11:51.489Z,58.40
2023-02-15T23:14:35.454Z,58.40
2023-02-15T23:17:03.070Z,58.40
2023-02-15T23:19:30.078Z,58.40
2023-02-15T23:21:57.131Z,58.30
2023-02-15T23:24:28.222Z,58.50
2023-02-15T23:27:16.092Z,58.40
2023-02-15T23:29:43.243Z,58.50
2023-02-15T23:32:13.414Z,58.60
2023-02-15T23:34:41.686Z,58.50
2023-02-15T23:37:13.375Z,58.70
2023-02-15T23:39:58.926Z,58.70
2023-02-15T23:42:31.801Z,58.80
2023-02-15T23:44:58.916Z,58.70
2023-02-15T23:47:48.942Z,58.80
2023-02-15T23:50:26.083Z,59.00
2023-02-15T23:52:54.960Z,59.10
2023-02-15T23:55:22.828Z,59.10
2023-02-15T23:57:50.277Z,59.30
